Time;durP1;ratioP1;P1;durP2;ratioP2;P2;SDS_P1;SDS_P2;PMS_P1;PMS_P2;Temp;Humidity;BMP_temperature;BMP_pressure;BME280_temperature;BME280_humidity;BME280_pressure;Samples;Min_cycle;Max_cycle;Signal;HPM_P1;HPM_P2
2023/02/02 00:00:12;;;;;;;6.72;2.30;;;;;;;;;;518098;28;1455;-76
2023/02/02 00:00:27;;;;;;;6.15;2.20;;;;;;;;;;517278;28;1283;-76
2023/02/02 00:00:42;;;;;;;4.90;2.07;;;;;;;;;;513879;28;1481;-76
2023/02/02 00:00:58;;;;;;;5.57;2.20;;;;;;;;;;513647;28;1549;-76
2023/02/02 00:01:13;;;;;;;5.60;2.20;;;;;;;;;;513477;28;1240;-76
2023/02/02 00:01:29;;;;;;;6.20;2.23;;;;;;;;;;514385;28;2063;-76
2023/02/02 00:01:47;;;;;;;6.20;2.20;;;;;;;;;;512963;28;1374;-76
2023/02/02 00:02:02;;;;;;;5.85;2.25;;;;;;;;;;514103;28;1236;-76
2023/02/02 00:02:17;;;;;;;6.50;2.10;;;;;;;;;;514043;28;1426;-76
2023/02/02 00:02:33;;;;;;;6.23;1.97;;;;;;;;;;515466;28;1302;-76
2023/02/02 00:02:48;;;;;;;5.73;2.00;;;;;;;;;;516827;28;1282;-76
2023/02/02 00:03:03;;;;;;;6.60;2.23;;;;;;;;;;515841;28;2022;-76
2023/02/02 00:03:19;;;;;;;6.13;2.20;;;;;;;;;;517023;28;1303;-76
2023/02/02 00:03:34;;;;;;;4.82;2.20;;;;;;;;;;516404;28;1119;-76
2023/02/02 00:03:49;;;;;;;5.10;2.20;;;;;;;;;;517203;28;1662;-76
2023/02/02 00:04:05;;;;;;;4.97;2.20;;;;;;;;;;517047;28;1405;-76
2023/02/02 00:04:32;;;;;;;5.18;2.10;;;;;;;;;;514549;28;1394;-76
2023/02/02 00:04:47;;;;;;;4.90;1.90;;;;;;;;;;516320;28;1118;-76
2023/02/02 00:05:02;;;;;;;5.23;2.00;;;;;;;;;;515734;28;1205;-76
2023/02/02 00:05:18;;;;;;;5.68;2.17;;;;;;;;;;518183;28;1166;-76
2023/02/02 00:05:33;;;;;;;6.60;2.30;;;;;;;;;;516239;28;1455;-76
2023/02/02 00:05:51;;;;;;;6.57;2.10;;;;;;;;;;514842;28;1359;-76
2023/02/02 00:06:06;;;;;;;5.63;2.00;;;;;;;;;;513976;28;1796;-76
2023/02/02 00:06:23;;;;;;;6.82;2.08;;;;;;;;;;517026;28;1368;-76
2023/02/02 00:06:39;;;;;;;6.68;2.05;;;;;;;;;;516060;28;1351;-77
2023/02/02 00:06:58;;;;;;;6.00;2.07;;;;;;;;;;514944;28;1389;-77
2023/02/02 00:07:13;;;;;;;6.93;2.10;;;;;;;;;;515559;28;1461;-76
2023/02/02 00:07:28;;;;;;;7.10;2.30;;;;;;;;;;514787;28;1392;-77
2023/02/02 00:07:44;;;;;;;7.28;2.22;;;;;;;;;;513365;28;1839;-76
2023/02/02 00:07:59;;;;;;;6.80;2.10;;;;;;;;;;513561;28;1162;-75
2023/02/02 00:08:19;;;;;;;6.33;2.10;;;;;;;;;;512366;28;1303;-79
2023/02/02 00:08:35;;;;;;;6.53;2.28;;;;;;;;;;515414;28;1407;-78
2023/02/02 00:08:51;;;;;;;6.20;2.20;;;;;;;;;;513878;28;1508;-76
2023/02/02 00:09:06;;;;;;;6.53;2.20;;;;;;;;;;514894;28;1352;-76
2023/02/02 00:09:22;;;;;;;7.03;2.27;;;;;;;;;;515843;28;1775;-78
2023/02/02 00:09:37;;;;;;;7.10;2.30;;;;;;;;;;515398;28;1455;-78
2023/02/02 00:09:52;;;;;;;6.60;2.15;;;;;;;;;;515658;28;1159;-79
2023/02/02 00:10:08;;;;;;;5.77;2.00;;;;;;;;;;514218;28;1269;-78
2023/02/02 00:10:24;;;;;;;5.95;2.00;;;;;;;;;;514650;28;1258;-78
2023/02/02 00:10:39;;;;;;;6.83;2.30;;;;;;;;;;514700;28;1105;-78
2023/02/02 00:10:54;;;;;;;6.90;2.30;;;;;;;;;;515301;28;1784;-78
2023/02/02 00:11:11;;;;;;;6.13;2.03;;;;;;;;;;515353;28;1287;-79
2023/02/02 00:11:26;;;;;;;5.72;2.00;;;;;;;;;;515972;28;1157;-78
2023/02/02 00:11:43;;;;;;;7.00;2.17;;;;;;;;;;519150;28;1316;-78
2023/02/02 00:11:59;;;;;;;6.53;2.15;;;;;;;;;;516583;28;1777;-78
2023/02/02 00:12:17;;;;;;;7.10;2.10;;;;;;;;;;513575;28;1485;-78
2023/02/02 00:12:33;;;;;;;7.43;2.10;;;;;;;;;;512565;28;1775;-78
2023/02/02 00:12:48;;;;;;;6.73;2.10;;;;;;;;;;511619;28;1457;-78
2023/02/02 00:13:03;;;;;;;6.93;2.20;;;;;;;;;;512839;28;1454;-78
2023/02/02 00:13:18;;;;;;;6.57;2.30;;;;;;;;;;512072;28;1481;-78
2023/02/02 00:13:34;;;;;;;6.60;2.33;;;;;;;;;;515168;28;1453;-78
2023/02/02 00:13:49;;;;;;;6.90;2.30;;;;;;;;;;517684;28;1337;-77
2023/02/02 00:14:06;;;;;;;6.97;2.30;;;;;;;;;;514367;28;1910;-76
2023/02/02 00:14:22;;;;;;;6.63;2.35;;;;;;;;;;515159;28;1106;-76
2023/02/02 00:14:37;;;;;;;6.88;2.42;;;;;;;;;;515439;28;1167;-76
2023/02/02 00:14:53;;;;;;;6.77;2.37;;;;;;;;;;516920;28;1438;-76
2023/02/02 00:15:08;;;;;;;6.77;2.30;;;;;;;;;;514355;28;1342;-76
2023/02/02 00:15:24;;;;;;;6.43;2.20;;;;;;;;;;513058;28;1239;-76
2023/02/02 00:15:39;;;;;;;6.88;2.17;;;;;;;;;;513321;28;1338;-75
2023/02/02 00:15:55;;;;;;;7.47;2.20;;;;;;;;;;514747;28;2041;-76
2023/02/02 00:16:33;;;;;;;7.30;2.28;;;;;;;;;;512258;28;1384;-78
2023/02/02 00:16:50;;;;;;;6.53;2.38;;;;;;;;;;512186;28;1172;-78
2023/02/02 00:17:09;;;;;;;6.07;2.15;;;;;;;;;;512779;28;1474;-78
2023/02/02 00:17:24;;;;;;;7.28;2.20;;;;;;;;;;512350;28;1707;-78
2023/02/02 00:17:40;;;;;;;8.03;2.30;;;;;;;;;;510025;28;1341;-78
2023/02/02 00:17:55;;;;;;;7.25;2.33;;;;;;;;;;512763;28;1346;-78
2023/02/02 00:18:10;;;;;;;7.20;2.30;;;;;;;;;;514025;28;1150;-77
2023/02/02 00:18:25;;;;;;;6.37;2.40;;;;;;;;;;511760;28;1284;-77
2023/02/02 00:18:41;;;;;;;6.47;2.40;;;;;;;;;;509216;28;1415;-78
2023/02/02 00:19:04;;;;;;;7.83;2.40;;;;;;;;;;512953;28;1797;-78
2023/02/02 00:19:25;;;;;;;6.45;2.30;;;;;;;;;;514774;28;1376;-78
2023/02/02 00:19:40;;;;;;;6.38;2.30;;;;;;;;;;517068;28;1141;-78
2023/02/02 00:19:55;;;;;;;7.83;2.40;;;;;;;;;;515767;28;1268;-78
2023/02/02 00:20:11;;;;;;;7.30;2.17;;;;;;;;;;515133;28;1454;-79
2023/02/02 00:20:26;;;;;;;7.32;2.30;;;;;;;;;;517628;28;1452;-78
2023/02/02 00:20:43;;;;;;;6.32;2.22;;;;;;;;;;518418;28;1973;-78
2023/02/02 00:20:58;;;;;;;6.55;2.13;;;;;;;;;;515676;28;1543;-78
2023/02/02 00:21:14;;;;;;;8.23;2.20;;;;;;;;;;517290;28;1392;-78
2023/02/02 00:21:29;;;;;;;6.20;2.10;;;;;;;;;;516566;28;1413;-78
2023/02/02 00:21:45;;;;;;;5.70;2.30;;;;;;;;;;515607;28;1237;-78
2023/02/02 00:22:00;;;;;;;6.60;2.50;;;;;;;;;;515059;28;1481;-78
2023/02/02 00:22:15;;;;;;;7.00;2.40;;;;;;;;;;513882;28;1761;-79
2023/02/02 00:22:31;;;;;;;5.72;2.20;;;;;;;;;;516837;28;1391;-79
2023/02/02 00:22:46;;;;;;;6.00;2.20;;;;;;;;;;516709;28;1291;-78
2023/02/02 00:23:03;;;;;;;6.83;2.43;;;;;;;;;;517173;28;1070;-78
2023/02/02 00:23:18;;;;;;;7.38;2.40;;;;;;;;;;515713;28;1377;-78
2023/02/02 00:23:33;;;;;;;7.70;2.43;;;;;;;;;;514898;28;1456;-77
2023/02/02 00:23:49;;;;;;;6.70;2.30;;;;;;;;;;515457;28;2335;-78
2023/02/02 00:24:06;;;;;;;7.30;2.37;;;;;;;;;;515178;28;1163;-78
2023/02/02 00:24:23;;;;;;;7.22;2.40;;;;;;;;;;516108;28;1394;-78
2023/02/02 00:24:38;;;;;;;7.90;2.60;;;;;;;;;;517333;28;1317;-78
2023/02/02 00:24:53;;;;;;;8.27;2.50;;;;;;;;;;515352;28;1541;-78
2023/02/02 00:25:09;;;;;;;7.63;2.50;;;;;;;;;;515488;28;1326;-78
2023/02/02 00:25:24;;;;;;;6.53;2.40;;;;;;;;;;513867;28;1491;-78
2023/02/02 00:25:39;;;;;;;5.78;2.20;;;;;;;;;;514747;28;1552;-78
2023/02/02 00:25:55;;;;;;;6.40;2.30;;;;;;;;;;515599;28;1351;-79
2023/02/02 00:26:10;;;;;;;6.03;2.27;;;;;;;;;;513847;28;1378;-78
2023/02/02 00:26:26;;;;;;;5.63;2.20;;;;;;;;;;515313;28;1402;-79
2023/02/02 00:26:42;;;;;;;6.80;2.30;;;;;;;;;;513293;28;1365;-78
2023/02/02 00:26:58;;;;;;;7.55;2.35;;;;;;;;;;513870;28;1751;-78
2023/02/02 00:27:14;;;;;;;6.85;2.47;;;;;;;;;;515223;28;1433;-78
2023/02/02 00:27:29;;;;;;;6.47;2.40;;;;;;;;;;515313;28;1441;-78
2023/02/02 00:27:44;;;;;;;6.82;2.28;;;;;;;;;;514010;28;1271;-78
2023/02/02 00:28:00;;;;;;;8.53;2.30;;;;;;;;;;513810;28;1303;-77
2023/02/02 00:28:15;;;;;;;9.13;2.40;;;;;;;;;;513866;28;1362;-79
2023/02/02 00:28:30;;;;;;;7.40;2.47;;;;;;;;;;514940;28;1725;-78
2023/02/02 00:28:46;;;;;;;6.27;2.40;;;;;;;;;;515993;28;1211;-79
2023/02/02 00:29:03;;;;;;;7.05;2.30;;;;;;;;;;515931;28;1091;-78
2023/02/02 00:29:25;;;;;;;7.00;2.30;;;;;;;;;;516440;28;1448;-78
2023/02/02 00:29:40;;;;;;;7.18;2.40;;;;;;;;;;515813;28;1440;-78
2023/02/02 00:29:56;;;;;;;7.90;2.40;;;;;;;;;;518676;28;1456;-78
2023/02/02 00:30:12;;;;;;;7.00;2.30;;;;;;;;;;518686;28;1082;-78
2023/02/02 00:30:27;;;;;;;7.13;2.50;;;;;;;;;;518428;28;1358;-78
2023/02/02 00:30:44;;;;;;;6.83;2.47;;;;;;;;;;517161;28;1176;-78
2023/02/02 00:30:59;;;;;;;6.90;2.55;;;;;;;;;;518636;28;1306;-78
2023/02/02 00:31:14;;;;;;;8.23;2.60;;;;;;;;;;517111;28;1405;-78
2023/02/02 00:31:30;;;;;;;7.73;2.40;;;;;;;;;;516875;28;1303;-78
2023/02/02 00:31:45;;;;;;;7.18;2.38;;;;;;;;;;513329;28;1496;-78
2023/02/02 00:32:01;;;;;;;7.73;2.47;;;;;;;;;;512956;28;1809;-78
2023/02/02 00:32:16;;;;;;;8.38;2.50;;;;;;;;;;511392;28;1398;-78
2023/02/02 00:32:31;;;;;;;8.40;2.40;;;;;;;;;;513528;28;1426;-78
2023/02/02 00:32:47;;;;;;;8.30;2.43;;;;;;;;;;512836;28;1119;-79
2023/02/02 00:33:02;;;;;;;7.88;2.40;;;;;;;;;;512874;28;1217;-78
2023/02/02 00:33:18;;;;;;;8.00;2.40;;;;;;;;;;515691;28;1370;-77
2023/02/02 00:33:33;;;;;;;7.78;2.42;;;;;;;;;;515472;28;1733;-78
2023/02/02 00:33:49;;;;;;;7.20;2.60;;;;;;;;;;516727;28;1209;-78
2023/02/02 00:34:04;;;;;;;6.55;2.38;;;;;;;;;;514502;28;1922;-78
2023/02/02 00:34:21;;;;;;;7.22;2.25;;;;;;;;;;514370;28;1369;-78
2023/02/02 00:34:36;;;;;;;7.35;2.30;;;;;;;;;;515390;28;1400;-78
2023/02/02 00:34:51;;;;;;;7.47;2.53;;;;;;;;;;513028;28;1252;-79
2023/02/02 00:35:08;;;;;;;7.33;2.47;;;;;;;;;;513939;28;1747;-78
2023/02/02 00:35:23;;;;;;;6.63;2.35;;;;;;;;;;513054;28;1488;-78
2023/02/02 00:35:39;;;;;;;7.27;2.43;;;;;;;;;;512605;28;1347;-78
2023/02/02 00:35:55;;;;;;;6.68;2.40;;;;;;;;;;515056;28;1280;-78
2023/02/02 00:36:10;;;;;;;6.20;2.20;;;;;;;;;;513290;28;1433;-78
2023/02/02 00:36:25;;;;;;;6.33;2.20;;;;;;;;;;512350;28;1276;-78
2023/02/02 00:36:42;;;;;;;7.10;2.28;;;;;;;;;;514819;28;1858;-78
2023/02/02 00:36:57;;;;;;;6.72;2.30;;;;;;;;;;513953;28;1395;-78
2023/02/02 00:37:12;;;;;;;6.75;2.22;;;;;;;;;;515449;28;1346;-78
2023/02/02 00:37:28;;;;;;;7.73;2.27;;;;;;;;;;517170;28;1448;-78
2023/02/02 00:37:43;;;;;;;7.87;2.50;;;;;;;;;;515587;28;1448;-78
2023/02/02 00:37:58;;;;;;;7.43;2.57;;;;;;;;;;512962;28;1306;-78
2023/02/02 00:38:14;;;;;;;8.38;2.70;;;;;;;;;;511496;28;1367;-78
2023/02/02 00:38:30;;;;;;;10.00;2.90;;;;;;;;;;512033;28;1371;-78
2023/02/02 00:38:46;;;;;;;9.65;2.58;;;;;;;;;;512565;28;1343;-78
2023/02/02 00:39:02;;;;;;;9.05;2.50;;;;;;;;;;513113;28;1380;-78
2023/02/02 00:39:25;;;;;;;8.70;2.40;;;;;;;;;;514092;28;1477;-78
2023/02/02 00:39:40;;;;;;;7.72;2.50;;;;;;;;;;513463;28;2010;-78
2023/02/02 00:39:55;;;;;;;8.80;2.80;;;;;;;;;;513670;28;1531;-78
2023/02/02 00:40:11;;;;;;;8.27;2.70;;;;;;;;;;513791;28;1318;-77
2023/02/02 00:40:27;;;;;;;7.23;2.60;;;;;;;;;;515384;28;1299;-78
2023/02/02 00:40:42;;;;;;;9.02;2.80;;;;;;;;;;512549;28;1384;-78
2023/02/02 00:40:57;;;;;;;7.30;2.58;;;;;;;;;;515675;28;1409;-78
2023/02/02 00:41:13;;;;;;;6.53;2.47;;;;;;;;;;516099;28;1345;-78
2023/02/02 00:41:28;;;;;;;7.27;2.67;;;;;;;;;;516755;28;1531;-78
2023/02/02 00:41:44;;;;;;;7.10;2.63;;;;;;;;;;513402;28;1798;-78
2023/02/02 00:41:59;;;;;;;7.70;2.60;;;;;;;;;;514458;28;1313;-78
2023/02/02 00:42:14;;;;;;;8.37;2.67;;;;;;;;;;512246;28;1383;-78
2023/02/02 00:42:30;;;;;;;7.80;2.70;;;;;;;;;;513645;28;1370;-78
2023/02/02 00:42:49;;;;;;;6.90;2.50;;;;;;;;;;512784;28;1311;-78
2023/02/02 00:43:04;;;;;;;6.85;2.40;;;;;;;;;;513180;28;1319;-78
2023/02/02 00:43:19;;;;;;;7.10;2.47;;;;;;;;;;514057;28;1330;-78
2023/02/02 00:43:35;;;;;;;7.87;2.40;;;;;;;;;;513163;28;1422;-78
2023/02/02 00:45:14;;;;;;;7.33;2.50;;;;;;;;;;513554;28;1385;-78
2023/02/02 00:45:15;;;;;;;7.55;2.40;;;;;;;;;;515629;28;1063;-78
2023/02/02 00:45:30;;;;;;;7.72;2.50;;;;;;;;;;519684;28;1202;-78
2023/02/02 00:45:45;;;;;;;6.88;2.50;;;;;;;;;;517282;28;1352;-78
2023/02/02 00:46:01;;;;;;;6.80;2.50;;;;;;;;;;517750;28;1063;-78
2023/02/02 00:46:17;;;;;;;7.28;2.45;;;;;;;;;;516140;28;1248;-78
2023/02/02 00:46:32;;;;;;;8.38;2.53;;;;;;;;;;514233;28;1956;-78
2023/02/02 00:46:48;;;;;;;8.60;2.50;;;;;;;;;;515000;28;1316;-78
2023/02/02 00:47:03;;;;;;;8.05;2.45;;;;;;;;;;512463;28;1560;-78
2023/02/02 00:47:19;;;;;;;7.23;2.40;;;;;;;;;;510666;28;1239;-78
2023/02/02 00:47:35;;;;;;;6.90;2.55;;;;;;;;;;512165;28;1716;-78
2023/02/02 00:47:50;;;;;;;7.53;2.58;;;;;;;;;;512341;28;1310;-78
2023/02/02 00:48:05;;;;;;;6.90;2.20;;;;;;;;;;512747;28;1583;-78
2023/02/02 00:48:21;;;;;;;6.33;2.40;;;;;;;;;;512355;28;1305;-78
2023/02/02 00:48:36;;;;;;;6.43;2.60;;;;;;;;;;514789;28;1507;-78
2023/02/02 00:48:52;;;;;;;5.97;2.47;;;;;;;;;;515395;28;1377;-77
2023/02/02 00:49:08;;;;;;;7.30;2.50;;;;;;;;;;513111;28;1367;-78
2023/02/02 00:49:23;;;;;;;8.15;2.60;;;;;;;;;;513399;28;1463;-78
2023/02/02 00:49:38;;;;;;;7.40;2.43;;;;;;;;;;511539;28;1778;-78
2023/02/02 00:49:53;;;;;;;7.03;2.50;;;;;;;;;;511147;28;1377;-78
2023/02/02 00:50:11;;;;;;;8.10;2.47;;;;;;;;;;513871;28;1357;-78
2023/02/02 00:50:27;;;;;;;8.45;2.42;;;;;;;;;;513507;28;1328;-79
2023/02/02 00:50:42;;;;;;;7.40;2.50;;;;;;;;;;514275;28;1281;-78
2023/02/02 00:50:57;;;;;;;6.97;2.53;;;;;;;;;;514647;28;1480;-78
2023/02/02 00:51:12;;;;;;;6.77;2.50;;;;;;;;;;515059;28;1643;-78
2023/02/02 00:51:28;;;;;;;6.88;2.60;;;;;;;;;;514152;28;1381;-77
2023/02/02 00:51:43;;;;;;;8.07;2.70;;;;;;;;;;511623;28;1224;-77
2023/02/02 00:51:59;;;;;;;8.90;2.73;;;;;;;;;;513453;28;1337;-78
2023/02/02 00:52:14;;;;;;;8.15;2.60;;;;;;;;;;513287;28;1318;-78
2023/02/02 00:52:29;;;;;;;7.93;2.60;;;;;;;;;;514668;28;1341;-78
2023/02/02 00:52:49;;;;;;;7.13;2.45;;;;;;;;;;514712;28;1641;-78
2023/02/02 00:53:04;;;;;;;6.25;2.50;;;;;;;;;;512037;28;1443;-79
2023/02/02 00:53:19;;;;;;;7.07;2.70;;;;;;;;;;515318;28;1465;-78
2023/02/02 00:53:35;;;;;;;7.53;2.73;;;;;;;;;;517237;28;1372;-78
2023/02/02 00:53:50;;;;;;;8.50;2.73;;;;;;;;;;516191;28;1452;-78
2023/02/02 00:54:05;;;;;;;8.47;2.80;;;;;;;;;;516801;28;1977;-78
2023/02/02 00:54:21;;;;;;;7.85;2.80;;;;;;;;;;514867;28;1666;-77
2023/02/02 00:54:36;;;;;;;7.27;2.60;;;;;;;;;;515075;28;1410;-78
2023/02/02 00:54:51;;;;;;;7.07;2.60;;;;;;;;;;513529;28;1508;-77
2023/02/02 00:55:08;;;;;;;7.77;2.57;;;;;;;;;;514457;28;1164;-77
2023/02/02 00:55:25;;;;;;;7.90;2.53;;;;;;;;;;514850;28;1398;-78
2023/02/02 00:55:40;;;;;;;8.15;2.67;;;;;;;;;;514786;28;1200;-78
2023/02/02 00:55:55;;;;;;;8.10;2.63;;;;;;;;;;514227;28;1844;-78
2023/02/02 00:56:10;;;;;;;7.20;2.40;;;;;;;;;;513328;28;1220;-78
2023/02/02 00:56:26;;;;;;;7.10;2.47;;;;;;;;;;513761;28;1162;-78
2023/02/02 00:56:41;;;;;;;7.30;2.47;;;;;;;;;;515347;28;1436;-78
2023/02/02 00:56:57;;;;;;;7.38;2.50;;;;;;;;;;514951;28;1410;-78
2023/02/02 00:57:13;;;;;;;7.03;2.50;;;;;;;;;;513814;28;1422;-78
2023/02/02 00:57:28;;;;;;;7.90;2.60;;;;;;;;;;512204;28;1184;-78
2023/02/02 00:57:44;;;;;;;8.73;2.70;;;;;;;;;;511768;28;2025;-79
2023/02/02 00:57:59;;;;;;;8.57;2.60;;;;;;;;;;512763;28;1240;-78
2023/02/02 00:58:14;;;;;;;6.97;2.40;;;;;;;;;;511756;28;1597;-78
2023/02/02 00:58:30;;;;;;;5.63;2.30;;;;;;;;;;509838;28;1380;-78
2023/02/02 00:58:45;;;;;;;5.70;2.40;;;;;;;;;;510590;28;1201;-78
2023/02/02 00:59:00;;;;;;;6.27;2.60;;;;;;;;;;511278;28;1506;-78
2023/02/02 00:59:16;;;;;;;7.23;2.70;;;;;;;;;;511542;28;1748;-78
2023/02/02 00:59:31;;;;;;;7.75;2.70;;;;;;;;;;510264;28;1430;-79
2023/02/02 00:59:47;;;;;;;8.27;3.00;;;;;;;;;;510950;28;1219;-77
2023/02/02 01:00:05;;;;;;;8.03;3.00;;;;;;;;;;513384;28;1449;-79
2023/02/02 01:00:23;;;;;;;7.97;2.80;;;;;;;;;;512362;28;1244;-79
2023/02/02 01:00:39;;;;;;;7.80;2.60;;;;;;;;;;510817;28;1355;-80
2023/02/02 01:00:54;;;;;;;7.00;2.50;;;;;;;;;;510493;28;1648;-78
2023/02/02 01:01:17;;;;;;;6.75;2.50;;;;;;;;;;513280;28;1453;-78
2023/02/02 01:01:32;;;;;;;5.50;2.25;;;;;;;;;;514961;28;1422;-77
2023/02/02 01:01:47;;;;;;;6.13;2.40;;;;;;;;;;515754;28;1424;-79
2023/02/02 01:02:03;;;;;;;7.07;2.60;;;;;;;;;;512935;28;1370;-77
2023/02/02 01:02:18;;;;;;;6.93;2.50;;;;;;;;;;512911;28;1374;-78
2023/02/02 01:02:34;;;;;;;6.53;2.40;;;;;;;;;;511813;28;2623;-77
2023/02/02 01:02:51;;;;;;;6.55;2.50;;;;;;;;;;513250;28;1334;-78
2023/02/02 01:03:08;;;;;;;6.60;2.50;;;;;;;;;;512039;28;1395;-77
2023/02/02 01:03:23;;;;;;;5.70;2.47;;;;;;;;;;510463;28;1194;-77
2023/02/02 01:03:39;;;;;;;5.17;2.40;;;;;;;;;;511464;28;1277;-77
2023/02/02 01:03:54;;;;;;;5.55;2.50;;;;;;;;;;513002;28;1445;-78
2023/02/02 01:04:09;;;;;;;6.87;2.80;;;;;;;;;;511431;28;2175;-77
2023/02/02 01:04:24;;;;;;;7.73;2.83;;;;;;;;;;512578;28;1485;-76
2023/02/02 01:04:40;;;;;;;7.53;2.70;;;;;;;;;;511877;28;1222;-78
2023/02/02 01:04:55;;;;;;;7.53;2.60;;;;;;;;;;514625;28;1417;-77
2023/02/02 01:05:11;;;;;;;8.90;2.70;;;;;;;;;;514299;28;1582;-77
2023/02/02 01:05:26;;;;;;;9.27;2.88;;;;;;;;;;510947;28;1451;-78
2023/02/02 01:05:42;;;;;;;7.17;2.60;;;;;;;;;;510948;28;1866;-78
2023/02/02 01:05:57;;;;;;;7.20;2.50;;;;;;;;;;510190;28;1220;-77
2023/02/02 01:06:12;;;;;;;7.67;2.70;;;;;;;;;;512773;28;1344;-77
2023/02/02 01:06:28;;;;;;;7.65;2.63;;;;;;;;;;514430;28;1658;-78
2023/02/02 01:06:43;;;;;;;7.80;2.60;;;;;;;;;;514477;28;1424;-77
2023/02/02 01:06:58;;;;;;;6.93;2.60;;;;;;;;;;515525;28;1318;-77
2023/02/02 01:07:14;;;;;;;7.25;2.70;;;;;;;;;;513677;28;1625;-77
2023/02/02 01:07:29;;;;;;;7.83;2.50;;;;;;;;;;514364;28;1236;-77
2023/02/02 01:07:45;;;;;;;8.70;2.58;;;;;;;;;;513031;28;1425;-77
2023/02/02 01:08:01;;;;;;;8.67;2.70;;;;;;;;;;514584;28;1516;-77
2023/02/02 01:08:16;;;;;;;8.32;2.78;;;;;;;;;;514559;28;1299;-77
2023/02/02 01:08:32;;;;;;;7.93;2.78;;;;;;;;;;517349;28;1490;-77
2023/02/02 01:08:47;;;;;;;6.93;2.50;;;;;;;;;;514666;28;1744;-78
2023/02/02 01:09:03;;;;;;;7.00;2.50;;;;;;;;;;517293;28;1323;-78
2023/02/02 01:09:18;;;;;;;7.15;2.50;;;;;;;;;;515042;28;1346;-78
2023/02/02 01:09:33;;;;;;;8.45;2.53;;;;;;;;;;514045;28;1326;-77
2023/02/02 01:09:49;;;;;;;9.13;2.77;;;;;;;;;;515226;28;1151;-77
2023/02/02 01:10:07;;;;;;;8.07;2.70;;;;;;;;;;516692;28;1395;-77
2023/02/02 01:10:22;;;;;;;6.70;2.38;;;;;;;;;;515646;28;1732;-78
2023/02/02 01:10:38;;;;;;;6.67;2.40;;;;;;;;;;515204;28;1241;-78
2023/02/02 01:10:53;;;;;;;6.80;2.50;;;;;;;;;;514515;28;1389;-78
2023/02/02 01:11:08;;;;;;;6.60;2.50;;;;;;;;;;514952;28;1336;-78
2023/02/02 01:11:24;;;;;;;7.47;2.53;;;;;;;;;;513095;28;1465;-78
2023/02/02 01:11:40;;;;;;;7.50;2.60;;;;;;;;;;512068;28;1380;-78
2023/02/02 01:11:55;;;;;;;6.80;2.50;;;;;;;;;;513471;28;1713;-77
2023/02/02 01:12:10;;;;;;;7.03;2.50;;;;;;;;;;515168;28;1135;-77
2023/02/02 01:12:26;;;;;;;7.00;2.50;;;;;;;;;;515461;28;1295;-77
2023/02/02 01:12:42;;;;;;;6.47;2.30;;;;;;;;;;515412;28;1322;-77
2023/02/02 01:12:57;;;;;;;6.55;2.40;;;;;;;;;;515551;28;1159;-78
2023/02/02 01:13:12;;;;;;;6.65;2.47;;;;;;;;;;517443;28;1361;-78
2023/02/02 01:13:28;;;;;;;7.10;2.47;;;;;;;;;;518345;28;1351;-77
2023/02/02 01:13:43;;;;;;;7.73;2.70;;;;;;;;;;517586;28;1779;-78
2023/02/02 01:13:58;;;;;;;6.78;2.60;;;;;;;;;;518185;28;1385;-77
2023/02/02 01:14:14;;;;;;;5.60;2.30;;;;;;;;;;516636;28;1922;-77
2023/02/02 01:14:29;;;;;;;6.47;2.30;;;;;;;;;;517960;28;1245;-78
2023/02/02 01:14:44;;;;;;;6.90;2.33;;;;;;;;;;519004;28;1482;-77
2023/02/02 01:15:01;;;;;;;6.97;2.50;;;;;;;;;;518666;28;1439;-77
2023/02/02 01:15:16;;;;;;;6.47;2.60;;;;;;;;;;516892;28;1829;-77
2023/02/02 01:15:31;;;;;;;6.30;2.50;;;;;;;;;;516292;28;1349;-77
2023/02/02 01:15:47;;;;;;;6.97;2.63;;;;;;;;;;516703;28;1373;-78
2023/02/02 01:16:03;;;;;;;7.07;2.50;;;;;;;;;;515173;28;1154;-77
2023/02/02 01:16:21;;;;;;;8.85;2.50;;;;;;;;;;514385;28;1028;-77
2023/02/02 01:16:36;;;;;;;8.68;2.70;;;;;;;;;;515193;28;1403;-77
2023/02/02 01:16:51;;;;;;;8.03;2.57;;;;;;;;;;514569;28;1710;-78
2023/02/02 01:17:07;;;;;;;8.57;2.63;;;;;;;;;;513804;28;1449;-78
2023/02/02 01:17:22;;;;;;;8.52;2.80;;;;;;;;;;516142;28;1476;-78
2023/02/02 01:17:38;;;;;;;7.47;2.73;;;;;;;;;;515240;28;1165;-77
2023/02/02 01:17:53;;;;;;;6.68;2.63;;;;;;;;;;516637;28;1409;-78
2023/02/02 01:18:09;;;;;;;6.60;2.60;;;;;;;;;;514558;28;1532;-77
2023/02/02 01:18:24;;;;;;;7.10;2.58;;;;;;;;;;513904;28;1591;-77
2023/02/02 01:18:40;;;;;;;8.37;2.70;;;;;;;;;;510561;28;1268;-79
2023/02/02 01:18:55;;;;;;;7.68;2.60;;;;;;;;;;512470;28;1409;-77
2023/02/02 01:19:14;;;;;;;7.70;2.60;;;;;;;;;;513468;28;1213;-78
2023/02/02 01:19:29;;;;;;;8.00;2.80;;;;;;;;;;514954;28;1262;-78
2023/02/02 01:19:45;;;;;;;7.57;2.70;;;;;;;;;;512190;28;1248;-77
2023/02/02 01:20:00;;;;;;;7.17;2.60;;;;;;;;;;514411;28;1754;-77
2023/02/02 01:20:18;;;;;;;7.80;2.77;;;;;;;;;;513479;28;1293;-77
2023/02/02 01:20:33;;;;;;;7.20;2.67;;;;;;;;;;514923;28;1436;-77
2023/02/02 01:21:06;;;;;;;6.63;2.50;;;;;;;;;;514460;28;1165;-77
2023/02/02 01:21:22;;;;;;;7.10;2.40;;;;;;;;;;517465;28;1380;-77
2023/02/02 01:21:37;;;;;;;7.20;2.47;;;;;;;;;;516464;28;1685;-78
2023/02/02 01:21:53;;;;;;;8.30;2.88;;;;;;;;;;516552;28;1342;-77
2023/02/02 01:22:08;;;;;;;8.53;2.90;;;;;;;;;;518072;28;1475;-77
2023/02/02 01:22:23;;;;;;;7.53;2.63;;;;;;;;;;518027;28;1270;-78
2023/02/02 01:22:39;;;;;;;7.80;2.72;;;;;;;;;;516127;28;1296;-78
2023/02/02 01:22:54;;;;;;;7.47;2.53;;;;;;;;;;514977;28;1284;-77
2023/02/02 01:23:09;;;;;;;7.17;2.40;;;;;;;;;;511888;28;1478;-77
2023/02/02 01:23:24;;;;;;;7.27;2.50;;;;;;;;;;510724;28;1304;-77
2023/02/02 01:23:40;;;;;;;7.35;2.58;;;;;;;;;;514780;28;1315;-77
2023/02/02 01:23:55;;;;;;;7.10;2.50;;;;;;;;;;515012;28;1449;-77
2023/02/02 01:24:10;;;;;;;6.50;2.40;;;;;;;;;;513814;28;1287;-77
2023/02/02 01:24:26;;;;;;;7.18;2.35;;;;;;;;;;514547;28;1319;-78
2023/02/02 01:24:41;;;;;;;8.00;2.57;;;;;;;;;;516778;28;1455;-78
2023/02/02 01:24:56;;;;;;;6.70;2.50;;;;;;;;;;514827;28;2036;-77
2023/02/02 01:25:12;;;;;;;6.60;2.50;;;;;;;;;;514757;28;1249;-78
2023/02/02 01:25:29;;;;;;;6.97;2.60;;;;;;;;;;515173;28;1179;-78
2023/02/02 01:25:44;;;;;;;7.22;2.67;;;;;;;;;;514779;28;995;-78
2023/02/02 01:26:02;;;;;;;7.35;2.65;;;;;;;;;;515631;28;1361;-78
2023/02/02 01:26:18;;;;;;;7.53;2.78;;;;;;;;;;516964;28;1200;-78
2023/02/02 01:26:33;;;;;;;7.77;2.57;;;;;;;;;;512948;28;1662;-77
2023/02/02 01:26:48;;;;;;;6.93;2.40;;;;;;;;;;515731;28;1417;-78
2023/02/02 01:27:04;;;;;;;6.93;2.40;;;;;;;;;;515220;28;1444;-77
2023/02/02 01:27:19;;;;;;;6.70;2.50;;;;;;;;;;515002;28;1433;-78
2023/02/02 01:27:34;;;;;;;6.90;2.72;;;;;;;;;;512236;28;1363;-77
2023/02/02 01:27:49;;;;;;;7.30;2.70;;;;;;;;;;513363;28;1201;-78
2023/02/02 01:28:05;;;;;;;7.33;2.43;;;;;;;;;;512465;28;1465;-78
2023/02/02 01:28:20;;;;;;;6.87;2.40;;;;;;;;;;514191;28;1220;-79
2023/02/02 01:28:36;;;;;;;5.90;2.30;;;;;;;;;;512347;28;1426;-78
2023/02/02 01:28:51;;;;;;;5.32;2.22;;;;;;;;;;510238;28;1224;-77
2023/02/02 01:29:07;;;;;;;5.83;2.30;;;;;;;;;;513555;28;1545;-77
2023/02/02 01:29:22;;;;;;;7.03;2.33;;;;;;;;;;512449;28;1357;-77
2023/02/02 01:29:37;;;;;;;7.03;2.17;;;;;;;;;;512987;28;1463;-77
2023/02/02 01:29:53;;;;;;;6.70;2.23;;;;;;;;;;512596;28;1155;-78
2023/02/02 01:30:09;;;;;;;6.97;2.40;;;;;;;;;;510627;28;1227;-77
2023/02/02 01:30:24;;;;;;;6.57;2.33;;;;;;;;;;512740;28;1237;-77
2023/02/02 01:30:39;;;;;;;6.10;2.50;;;;;;;;;;513946;28;1241;-78
2023/02/02 01:30:56;;;;;;;6.43;2.63;;;;;;;;;;511071;28;1301;-78
2023/02/02 01:31:13;;;;;;;7.53;2.60;;;;;;;;;;513094;28;1241;-78
2023/02/02 01:31:29;;;;;;;8.75;2.75;;;;;;;;;;514107;28;1145;-77
2023/02/02 01:31:44;;;;;;;8.40;2.80;;;;;;;;;;513338;28;1209;-78
2023/02/02 01:32:00;;;;;;;8.17;2.70;;;;;;;;;;513466;28;1311;-77
2023/02/02 01:32:15;;;;;;;7.90;2.60;;;;;;;;;;515166;28;1237;-78
2023/02/02 01:32:30;;;;;;;7.72;2.65;;;;;;;;;;515114;28;1050;-77
2023/02/02 01:32:45;;;;;;;7.97;2.60;;;;;;;;;;516420;28;1334;-77
2023/02/02 01:33:01;;;;;;;7.17;2.50;;;;;;;;;;516056;28;1143;-77
2023/02/02 01:33:17;;;;;;;6.72;2.50;;;;;;;;;;517194;28;1075;-78
2023/02/02 01:33:32;;;;;;;7.38;2.67;;;;;;;;;;516104;28;1205;-78
2023/02/02 01:33:48;;;;;;;7.37;2.60;;;;;;;;;;516663;28;1419;-77
2023/02/02 01:34:03;;;;;;;6.63;2.55;;;;;;;;;;516178;28;1971;-78
2023/02/02 01:34:19;;;;;;;5.90;2.53;;;;;;;;;;515731;28;1305;-78
2023/02/02 01:34:34;;;;;;;6.33;2.50;;;;;;;;;;515961;28;1197;-76
2023/02/02 01:34:50;;;;;;;8.13;2.70;;;;;;;;;;517388;28;1348;-77
2023/02/02 01:35:05;;;;;;;8.70;2.67;;;;;;;;;;516208;28;1294;-78
2023/02/02 01:35:21;;;;;;;7.47;2.58;;;;;;;;;;517291;28;1134;-77
2023/02/02 01:35:36;;;;;;;6.83;2.60;;;;;;;;;;515762;28;1168;-78
2023/02/02 01:35:53;;;;;;;7.10;2.53;;;;;;;;;;519462;28;1043;-78
2023/02/02 01:36:12;;;;;;;8.02;2.55;;;;;;;;;;517854;28;1095;-78
2023/02/02 01:36:28;;;;;;;8.10;2.55;;;;;;;;;;514405;28;1546;-77
2023/02/02 01:36:43;;;;;;;8.00;2.67;;;;;;;;;;515492;28;1274;-77
2023/02/02 01:36:58;;;;;;;7.33;2.60;;;;;;;;;;515814;28;1379;-77
2023/02/02 01:37:14;;;;;;;7.60;2.63;;;;;;;;;;517371;28;1341;-77
2023/02/02 01:37:29;;;;;;;8.00;2.70;;;;;;;;;;517866;28;1201;-77
2023/02/02 01:37:44;;;;;;;8.17;2.70;;;;;;;;;;515996;28;1043;-77
2023/02/02 01:38:00;;;;;;;8.77;2.63;;;;;;;;;;513037;28;1411;-78
2023/02/02 01:38:15;;;;;;;8.27;2.63;;;;;;;;;;514412;28;1265;-78
2023/02/02 01:38:31;;;;;;;7.32;2.50;;;;;;;;;;513604;28;1264;-78
2023/02/02 01:38:47;;;;;;;7.70;2.50;;;;;;;;;;512847;28;1353;-77
2023/02/02 01:39:03;;;;;;;7.38;2.47;;;;;;;;;;514144;28;1439;-78
2023/02/02 01:39:18;;;;;;;8.05;2.70;;;;;;;;;;514568;28;1264;-79